sensor_id;sensor_type;location;lat;lon;timestamp;P1;durP1;ratioP1;P2;durP2;ratioP2
74158;SDS011;62511;47.970;11.774;2024-01-06T00:01:59;7.95;;;4.30;;
74158;SDS011;62511;47.970;11.774;2024-01-06T00:04:26;11.20;;;6.10;;
74158;SDS011;62511;47.970;11.774;2024-01-06T00:06:53;7.82;;;4.15;;
74158;SDS011;62511;47.970;11.774;2024-01-06T00:09:20;7.85;;;4.57;;
74158;SDS011;62511;47.970;11.774;2024-01-06T00:11:46;13.95;;;5.90;;
74158;SDS011;62511;47.970;11.774;2024-01-06T00:14:12;11.55;;;5.95;;
74158;SDS011;62511;47.970;11.774;2024-01-06T00:16:38;9.77;;;5.53;;
74158;SDS011;62511;47.970;11.774;2024-01-06T00:19:07;9.65;;;3.90;;
74158;SDS011;62511;47.970;11.774;2024-01-06T00:21:33;7.30;;;3.50;;
74158;SDS011;62511;47.970;11.774;2024-01-06T00:24:00;6.80;;;3.35;;
74158;SDS011;62511;47.970;11.774;2024-01-06T00:26:26;7.07;;;3.22;;
74158;SDS011;62511;47.970;11.774;2024-01-06T00:28:52;5.90;;;3.22;;
74158;SDS011;62511;47.970;11.774;2024-01-06T00:31:18;5.32;;;2.90;;
74158;SDS011;62511;47.970;11.774;2024-01-06T00:33:45;5.55;;;3.13;;
74158;SDS011;62511;47.970;11.774;2024-01-06T00:36:12;4.07;;;2.47;;
74158;SDS011;62511;47.970;11.774;2024-01-06T00:38:39;8.07;;;3.70;;
74158;SDS011;62511;47.970;11.774;2024-01-06T00:41:05;6.60;;;3.20;;
74158;SDS011;62511;47.970;11.774;2024-01-06T00:43:31;7.00;;;3.47;;
74158;SDS011;62511;47.970;11.774;2024-01-06T00:45:57;5.68;;;3.03;;
74158;SDS011;62511;47.970;11.774;2024-01-06T00:48:24;5.72;;;2.28;;
74158;SDS011;62511;47.970;11.774;2024-01-06T00:50:50;3.97;;;2.28;;
74158;SDS011;62511;47.970;11.774;2024-01-06T00:53:16;6.13;;;2.85;;
74158;SDS011;62511;47.970;11.774;2024-01-06T00:55:42;4.13;;;1.83;;
74158;SDS011;62511;47.970;11.774;2024-01-06T00:58:08;3.20;;;1.95;;
74158;SDS011;62511;47.970;11.774;2024-01-06T01:00:35;3.08;;;2.03;;
74158;SDS011;62511;47.970;11.774;2024-01-06T01:03:01;5.50;;;1.58;;
74158;SDS011;62511;47.970;11.774;2024-01-06T01:05:28;2.88;;;1.50;;
74158;SDS011;62511;47.970;11.774;2024-01-06T01:07:54;1.83;;;1.13;;
74158;SDS011;62511;47.970;11.774;2024-01-06T01:10:20;2.42;;;1.50;;
74158;SDS011;62511;47.970;11.774;2024-01-06T01:12:46;2.88;;;1.35;;
74158;SDS011;62511;47.970;11.774;2024-01-06T01:15:14;4.38;;;1.48;;
74158;SDS011;62511;47.970;11.774;2024-01-06T01:17:40;2.90;;;1.20;;
74158;SDS011;62511;47.970;11.774;2024-01-06T01:20:08;3.85;;;1.80;;
74158;SDS011;62511;47.970;11.774;2024-01-06T01:22:34;2.05;;;1.15;;
74158;SDS011;62511;47.970;11.774;2024-01-06T01:25:00;3.55;;;1.38;;
74158;SDS011;62511;47.970;11.774;2024-01-06T01:27:30;3.38;;;1.50;;
74158;SDS011;62511;47.970;11.774;2024-01-06T01:29:57;3.85;;;1.60;;
74158;SDS011;62511;47.970;11.774;2024-01-06T01:32:23;1.98;;;1.30;;
74158;SDS011;62511;47.970;11.774;2024-01-06T01:34:49;3.20;;;1.90;;
74158;SDS011;62511;47.970;11.774;2024-01-06T01:37:16;2.80;;;1.40;;
74158;SDS011;62511;47.970;11.774;2024-01-06T01:39:42;2.47;;;1.55;;
74158;SDS011;62511;47.970;11.774;2024-01-06T01:42:09;3.67;;;1.65;;
74158;SDS011;62511;47.970;11.774;2024-01-06T01:44:35;3.03;;;1.92;;
74158;SDS011;62511;47.970;11.774;2024-01-06T01:47:02;3.05;;;1.42;;
74158;SDS011;62511;47.970;11.774;2024-01-06T01:52:01;2.70;;;1.30;;
74158;SDS011;62511;47.970;11.774;2024-01-06T01:54:27;3.20;;;1.67;;
74158;SDS011;62511;47.970;11.774;2024-01-06T01:56:54;4.32;;;2.08;;
74158;SDS011;62511;47.970;11.774;2024-01-06T01:59:20;5.38;;;1.92;;
74158;SDS011;62511;47.970;11.774;2024-01-06T02:01:46;3.25;;;1.90;;
74158;SDS011;62511;47.970;11.774;2024-01-06T02:04:13;3.47;;;1.88;;
74158;SDS011;62511;47.970;11.774;2024-01-06T02:06:39;8.23;;;1.90;;
74158;SDS011;62511;47.970;11.774;2024-01-06T02:09:05;3.65;;;2.28;;
74158;SDS011;62511;47.970;11.774;2024-01-06T02:11:32;2.92;;;2.17;;
74158;SDS011;62511;47.970;11.774;2024-01-06T02:13:58;3.28;;;1.88;;
74158;SDS011;62511;47.970;11.774;2024-01-06T02:16:24;1.88;;;1.17;;
74158;SDS011;62511;47.970;11.774;2024-01-06T02:18:50;3.08;;;1.45;;
74158;SDS011;62511;47.970;11.774;2024-01-06T02:21:16;2.75;;;1.70;;
74158;SDS011;62511;47.970;11.774;2024-01-06T02:23:43;2.25;;;1.25;;
74158;SDS011;62511;47.970;11.774;2024-01-06T02:26:09;2.28;;;1.27;;
74158;SDS011;62511;47.970;11.774;2024-01-06T02:28:36;2.00;;;1.60;;
74158;SDS011;62511;47.970;11.774;2024-01-06T02:31:03;2.08;;;1.10;;
74158;SDS011;62511;47.970;11.774;2024-01-06T02:33:29;3.40;;;1.80;;
74158;SDS011;62511;47.970;11.774;2024-01-06T02:35:55;2.60;;;1.13;;
74158;SDS011;62511;47.970;11.774;2024-01-06T02:38:21;3.05;;;1.50;;
74158;SDS011;62511;47.970;11.774;2024-01-06T02:40:47;2.47;;;1.15;;
74158;SDS011;62511;47.970;11.774;2024-01-06T02:43:14;1.70;;;0.93;;
74158;SDS011;62511;47.970;11.774;2024-01-06T02:45:40;1.98;;;1.23;;
74158;SDS011;62511;47.970;11.774;2024-01-06T02:48:07;1.98;;;1.33;;
74158;SDS011;62511;47.970;11.774;2024-01-06T02:50:33;1.00;;;0.90;;
74158;SDS011;62511;47.970;11.774;2024-01-06T02:52:59;1.55;;;0.70;;
74158;SDS011;62511;47.970;11.774;2024-01-06T02:55:25;1.35;;;0.80;;
74158;SDS011;62511;47.970;11.774;2024-01-06T02:57:52;1.08;;;0.57;;
74158;SDS011;62511;47.970;11.774;2024-01-06T03:00:19;1.77;;;0.73;;
74158;SDS011;62511;47.970;11.774;2024-01-06T03:02:46;1.65;;;0.70;;
74158;SDS011;62511;47.970;11.774;2024-01-06T03:05:12;1.65;;;1.10;;
74158;SDS011;62511;47.970;11.774;2024-01-06T03:07:39;1.20;;;1.10;;
74158;SDS011;62511;47.970;11.774;2024-01-06T03:10:05;1.35;;;0.93;;
74158;SDS011;62511;47.970;11.774;2024-01-06T03:12:31;1.17;;;1.00;;
74158;SDS011;62511;47.970;11.774;2024-01-06T03:14:58;1.73;;;1.05;;
74158;SDS011;62511;47.970;11.774;2024-01-06T03:17:24;0.63;;;0.60;;
74158;SDS011;62511;47.970;11.774;2024-01-06T03:19:50;1.25;;;0.80;;
74158;SDS011;62511;47.970;11.774;2024-01-06T03:22:17;0.88;;;0.75;;
74158;SDS011;62511;47.970;11.774;2024-01-06T03:24:43;1.20;;;0.70;;
74158;SDS011;62511;47.970;11.774;2024-01-06T03:27:09;1.85;;;0.70;;
74158;SDS011;62511;47.970;11.774;2024-01-06T03:29:35;1.00;;;0.80;;
74158;SDS011;62511;47.970;11.774;2024-01-06T03:32:02;2.58;;;0.95;;
74158;SDS011;62511;47.970;11.774;2024-01-06T03:34:28;0.88;;;0.73;;
74158;SDS011;62511;47.970;11.774;2024-01-06T03:36:54;0.90;;;0.80;;
74158;SDS011;62511;47.970;11.774;2024-01-06T03:39:21;1.35;;;0.82;;
74158;SDS011;62511;47.970;11.774;2024-01-06T03:41:48;1.40;;;0.82;;
74158;SDS011;62511;47.970;11.774;2024-01-06T03:44:14;0.60;;;0.50;;
74158;SDS011;62511;47.970;11.774;2024-01-06T03:46:40;1.08;;;0.98;;
74158;SDS011;62511;47.970;11.774;2024-01-06T03:49:06;0.80;;;0.50;;
74158;SDS011;62511;47.970;11.774;2024-01-06T03:51:33;0.30;;;0.30;;
74158;SDS011;62511;47.970;11.774;2024-01-06T03:53:59;0.70;;;0.63;;
74158;SDS011;62511;47.970;11.774;2024-01-06T03:56:25;6.72;;;0.75;;
74158;SDS011;62511;47.970;11.774;2024-01-06T03:58:51;1.55;;;0.60;;
74158;SDS011;62511;47.970;11.774;2024-01-06T04:01:18;0.80;;;0.60;;
74158;SDS011;62511;47.970;11.774;2024-01-06T04:03:44;0.93;;;0.77;;
74158;SDS011;62511;47.970;11.774;2024-01-06T04:06:10;1.25;;;0.73;;
74158;SDS011;62511;47.970;11.774;2024-01-06T04:08:36;2.83;;;1.10;;
74158;SDS011;62511;47.970;11.774;2024-01-06T04:11:03;0.82;;;0.75;;
74158;SDS011;62511;47.970;11.774;2024-01-06T04:13:29;0.88;;;0.68;;
74158;SDS011;62511;47.970;11.774;2024-01-06T04:15:55;2.10;;;0.70;;
74158;SDS011;62511;47.970;11.774;2024-01-06T04:18:21;1.23;;;0.90;;
74158;SDS011;62511;47.970;11.774;2024-01-06T04:20:47;1.23;;;0.75;;
74158;SDS011;62511;47.970;11.774;2024-01-06T04:23:15;1.15;;;0.80;;
74158;SDS011;62511;47.970;11.774;2024-01-06T04:25:41;1.23;;;0.68;;
74158;SDS011;62511;47.970;11.774;2024-01-06T04:28:07;1.63;;;1.20;;
74158;SDS011;62511;47.970;11.774;2024-01-06T04:30:33;0.70;;;0.70;;
74158;SDS011;62511;47.970;11.774;2024-01-06T04:33:00;0.63;;;0.60;;
74158;SDS011;62511;47.970;11.774;2024-01-06T04:35:26;0.40;;;0.40;;
74158;SDS011;62511;47.970;11.774;2024-01-06T04:37:53;1.13;;;0.60;;
74158;SDS011;62511;47.970;11.774;2024-01-06T04:40:18;0.93;;;0.80;;
74158;SDS011;62511;47.970;11.774;2024-01-06T04:42:45;1.08;;;0.47;;
74158;SDS011;62511;47.970;11.774;2024-01-06T04:45:11;0.75;;;0.60;;
74158;SDS011;62511;47.970;11.774;2024-01-06T04:47:38;0.93;;;0.75;;
74158;SDS011;62511;47.970;11.774;2024-01-06T04:50:05;0.80;;;0.70;;
74158;SDS011;62511;47.970;11.774;2024-01-06T04:52:32;2.65;;;0.50;;
74158;SDS011;62511;47.970;11.774;2024-01-06T04:54:58;0.75;;;0.52;;
74158;SDS011;62511;47.970;11.774;2024-01-06T04:57:24;2.08;;;0.55;;
74158;SDS011;62511;47.970;11.774;2024-01-06T04:59:51;0.95;;;0.50;;
74158;SDS011;62511;47.970;11.774;2024-01-06T05:02:17;0.75;;;0.73;;
74158;SDS011;62511;47.970;11.774;2024-01-06T05:04:44;0.98;;;0.73;;
74158;SDS011;62511;47.970;11.774;2024-01-06T05:07:10;1.25;;;1.08;;
74158;SDS011;62511;47.970;11.774;2024-01-06T05:09:38;0.93;;;0.80;;
74158;SDS011;62511;47.970;11.774;2024-01-06T05:12:04;0.90;;;0.63;;
74158;SDS011;62511;47.970;11.774;2024-01-06T05:14:31;0.82;;;0.60;;
74158;SDS011;62511;47.970;11.774;2024-01-06T05:16:58;0.88;;;0.70;;
74158;SDS011;62511;47.970;11.774;2024-01-06T05:19:24;0.82;;;0.77;;
74158;SDS011;62511;47.970;11.774;2024-01-06T05:21:50;0.60;;;0.60;;
74158;SDS011;62511;47.970;11.774;2024-01-06T05:24:17;0.95;;;0.50;;
74158;SDS011;62511;47.970;11.774;2024-01-06T05:26:44;1.23;;;1.02;;
74158;SDS011;62511;47.970;11.774;2024-01-06T05:29:10;0.80;;;0.50;;
74158;SDS011;62511;47.970;11.774;2024-01-06T05:31:36;1.63;;;0.73;;
74158;SDS011;62511;47.970;11.774;2024-01-06T05:34:02;0.35;;;0.35;;
74158;SDS011;62511;47.970;11.774;2024-01-06T05:36:29;0.30;;;0.30;;
74158;SDS011;62511;47.970;11.774;2024-01-06T05:38:55;0.63;;;0.50;;
74158;SDS011;62511;47.970;11.774;2024-01-06T05:41:22;0.88;;;0.68;;
74158;SDS011;62511;47.970;11.774;2024-01-06T05:43:48;0.75;;;0.60;;
74158;SDS011;62511;47.970;11.774;2024-01-06T05:46:21;0.63;;;0.50;;
74158;SDS011;62511;47.970;11.774;2024-01-06T05:48:48;0.38;;;0.38;;
74158;SDS011;62511;47.970;11.774;2024-01-06T05:51:14;0.68;;;0.60;;
74158;SDS011;62511;47.970;11.774;2024-01-06T05:53:41;0.88;;;0.50;;
74158;SDS011;62511;47.970;11.774;2024-01-06T05:56:07;0.50;;;0.50;;
74158;SDS011;62511;47.970;11.774;2024-01-06T05:58:35;0.43;;;0.30;;
74158;SDS011;62511;47.970;11.774;2024-01-06T06:01:01;0.52;;;0.52;;
74158;SDS011;62511;47.970;11.774;2024-01-06T06:03:27;1.23;;;0.55;;
74158;SDS011;62511;47.970;11.774;2024-01-06T06:05:54;0.95;;;0.63;;
74158;SDS011;62511;47.970;11.774;2024-01-06T06:08:20;0.28;;;0.22;;
74158;SDS011;62511;47.970;11.774;2024-01-06T06:10:47;0.52;;;0.35;;
74158;SDS011;62511;47.970;11.774;2024-01-06T06:13:39;0.55;;;0.47;;
74158;SDS011;62511;47.970;11.774;2024-01-06T06:16:06;0.95;;;0.70;;
74158;SDS011;62511;47.970;11.774;2024-01-06T06:18:32;1.58;;;0.90;;
74158;SDS011;62511;47.970;11.774;2024-01-06T06:20:59;1.20;;;0.80;;
74158;SDS011;62511;47.970;11.774;2024-01-06T06:23:26;1.30;;;0.85;;
74158;SDS011;62511;47.970;11.774;2024-01-06T06:25:54;3.75;;;0.77;;
74158;SDS011;62511;47.970;11.774;2024-01-06T06:28:20;0.75;;;0.75;;
74158;SDS011;62511;47.970;11.774;2024-01-06T06:30:46;0.73;;;0.73;;
74158;SDS011;62511;47.970;11.774;2024-01-06T06:33:12;0.55;;;0.55;;
74158;SDS011;62511;47.970;11.774;2024-01-06T06:35:39;0.77;;;0.75;;
74158;SDS011;62511;47.970;11.774;2024-01-06T06:38:05;0.40;;;0.40;;
74158;SDS011;62511;47.970;11.774;2024-01-06T06:40:31;2.20;;;0.60;;
74158;SDS011;62511;47.970;11.774;2024-01-06T06:42:57;3.65;;;1.02;;
74158;SDS011;62511;47.970;11.774;2024-01-06T06:45:24;0.98;;;0.80;;
74158;SDS011;62511;47.970;11.774;2024-01-06T06:47:50;1.40;;;1.08;;
74158;SDS011;62511;47.970;11.774;2024-01-06T06:50:16;0.73;;;0.63;;
74158;SDS011;62511;47.970;11.774;2024-01-06T06:52:43;0.80;;;0.52;;
74158;SDS011;62511;47.970;11.774;2024-01-06T06:55:09;0.70;;;0.60;;
74158;SDS011;62511;47.970;11.774;2024-01-06T06:57:36;1.10;;;0.82;;
74158;SDS011;62511;47.970;11.774;2024-01-06T07:00:02;1.52;;;0.90;;
74158;SDS011;62511;47.970;11.774;2024-01-06T07:02:28;1.13;;;0.73;;
74158;SDS011;62511;47.970;11.774;2024-01-06T07:04:56;1.70;;;0.80;;
74158;SDS011;62511;47.970;11.774;2024-01-06T07:07:22;0.95;;;0.85;;
74158;SDS011;62511;47.970;11.774;2024-01-06T07:09:48;0.82;;;0.60;;
74158;SDS011;62511;47.970;11.774;2024-01-06T07:12:14;1.20;;;0.57;;
74158;SDS011;62511;47.970;11.774;2024-01-06T07:14:40;0.70;;;0.60;;
74158;SDS011;62511;47.970;11.774;2024-01-06T07:17:07;0.77;;;0.52;;
74158;SDS011;62511;47.970;11.774;2024-01-06T07:19:34;0.88;;;0.60;;
74158;SDS011;62511;47.970;11.774;2024-01-06T07:22:00;1.60;;;1.10;;
74158;SDS011;62511;47.970;11.774;2024-01-06T07:24:27;1.65;;;0.98;;
74158;SDS011;62511;47.970;11.774;2024-01-06T07:26:53;1.33;;;0.75;;
74158;SDS011;62511;47.970;11.774;2024-01-06T07:29:19;3.30;;;1.10;;
74158;SDS011;62511;47.970;11.774;2024-01-06T07:31:46;1.30;;;0.80;;
74158;SDS011;62511;47.970;11.774;2024-01-06T07:34:12;1.35;;;0.98;;
74158;SDS011;62511;47.970;11.774;2024-01-06T07:36:38;2.10;;;0.90;;
74158;SDS011;62511;47.970;11.774;2024-01-06T07:39:05;1.55;;;1.10;;
74158;SDS011;62511;47.970;11.774;2024-01-06T07:41:31;4.22;;;1.55;;
74158;SDS011;62511;47.970;11.774;2024-01-06T07:43:57;1.35;;;0.80;;
74158;SDS011;62511;47.970;11.774;2024-01-06T07:46:24;1.15;;;0.80;;
74158;SDS011;62511;47.970;11.774;2024-01-06T07:48:50;1.33;;;1.00;;
74158;SDS011;62511;47.970;11.774;2024-01-06T07:51:16;1.27;;;0.90;;
74158;SDS011;62511;47.970;11.774;2024-01-06T07:53:42;1.33;;;0.73;;
74158;SDS011;62511;47.970;11.774;2024-01-06T07:56:09;1.40;;;0.73;;
74158;SDS011;62511;47.970;11.774;2024-01-06T07:58:35;1.38;;;0.93;;
74158;SDS011;62511;47.970;11.774;2024-01-06T08:01:01;1.23;;;0.98;;
74158;SDS011;62511;47.970;11.774;2024-01-06T08:03:27;1.25;;;0.82;;
74158;SDS011;62511;47.970;11.774;2024-01-06T08:05:54;5.03;;;0.90;;
74158;SDS011;62511;47.970;11.774;2024-01-06T08:08:20;0.70;;;0.63;;
74158;SDS011;62511;47.970;11.774;2024-01-06T08:10:46;1.02;;;0.75;;
74158;SDS011;62511;47.970;11.774;2024-01-06T08:13:13;0.93;;;0.73;;
74158;SDS011;62511;47.970;11.774;2024-01-06T08:15:39;0.77;;;0.70;;
74158;SDS011;62511;47.970;11.774;2024-01-06T08:18:06;0.50;;;0.10;;
74158;SDS011;62511;47.970;11.774;2024-01-06T08:20:33;1.08;;;0.60;;
74158;SDS011;62511;47.970;11.774;2024-01-06T08:22:59;0.90;;;0.70;;
74158;SDS011;62511;47.970;11.774;2024-01-06T08:25:26;1.08;;;0.60;;
74158;SDS011;62511;47.970;11.774;2024-01-06T08:27:52;0.85;;;0.50;;
74158;SDS011;62511;47.970;11.774;2024-01-06T08:30:19;0.68;;;0.40;;
74158;SDS011;62511;47.970;11.774;2024-01-06T08:32:45;0.40;;;0.38;;
74158;SDS011;62511;47.970;11.774;2024-01-06T08:35:11;0.80;;;0.50;;
74158;SDS011;62511;47.970;11.774;2024-01-06T08:37:38;0.38;;;0.30;;
74158;SDS011;62511;47.970;11.774;2024-01-06T08:40:05;0.55;;;0.50;;
74158;SDS011;62511;47.970;11.774;2024-01-06T08:42:31;0.47;;;0.47;;
74158;SDS011;62511;47.970;11.774;2024-01-06T08:44:58;0.45;;;0.40;;
74158;SDS011;62511;47.970;11.774;2024-01-06T08:47:24;1.10;;;0.63;;
74158;SDS011;62511;47.970;11.774;2024-01-06T08:49:50;2.80;;;0.70;;
74158;SDS011;62511;47.970;11.774;2024-01-06T08:52:16;0.30;;;0.30;;
74158;SDS011;62511;47.970;11.774;2024-01-06T08:54:42;0.90;;;0.73;;
74158;SDS011;62511;47.970;11.774;2024-01-06T08:57:09;1.15;;;0.70;;
74158;SDS011;62511;47.970;11.774;2024-01-06T08:59:35;0.75;;;0.47;;
74158;SDS011;62511;47.970;11.774;2024-01-06T09:02:02;3.03;;;0.88;;
74158;SDS011;62511;47.970;11.774;2024-01-06T09:04:28;0.75;;;0.65;;
74158;SDS011;62511;47.970;11.774;2024-01-06T09:06:54;1.08;;;0.98;;
74158;SDS011;62511;47.970;11.774;2024-01-06T09:09:20;1.85;;;1.02;;
74158;SDS011;62511;47.970;11.774;2024-01-06T09:14:16;1.15;;;0.80;;
74158;SDS011;62511;47.970;11.774;2024-01-06T09:16:42;0.95;;;0.60;;
74158;SDS011;62511;47.970;11.774;2024-01-06T09:19:09;1.67;;;0.70;;
74158;SDS011;62511;47.970;11.774;2024-01-06T09:21:35;1.48;;;0.88;;
74158;SDS011;62511;47.970;11.774;2024-01-06T09:24:02;1.25;;;0.73;;
74158;SDS011;62511;47.970;11.774;2024-01-06T09:26:32;1.33;;;0.80;;
74158;SDS011;62511;47.970;11.774;2024-01-06T09:31:25;0.73;;;0.57;;
74158;SDS011;62511;47.970;11.774;2024-01-06T09:33:51;0.55;;;0.47;;
74158;SDS011;62511;47.970;11.774;2024-01-06T09:36:17;0.85;;;0.82;;
74158;SDS011;62511;47.970;11.774;2024-01-06T09:38:44;0.88;;;0.80;;
74158;SDS011;62511;47.970;11.774;2024-01-06T09:41:11;0.85;;;0.43;;
74158;SDS011;62511;47.970;11.774;2024-01-06T09:43:37;1.30;;;0.90;;
74158;SDS011;62511;47.970;11.774;2024-01-06T09:46:10;0.77;;;0.50;;
74158;SDS011;62511;47.970;11.774;2024-01-06T09:48:39;3.00;;;1.10;;
74158;SDS011;62511;47.970;11.774;2024-01-06T09:51:11;0.95;;;0.95;;
74158;SDS011;62511;47.970;11.774;2024-01-06T09:53:42;0.80;;;0.70;;
74158;SDS011;62511;47.970;11.774;2024-01-06T09:56:08;3.58;;;0.60;;
74158;SDS011;62511;47.970;11.774;2024-01-06T09:58:35;1.05;;;0.80;;
74158;SDS011;62511;47.970;11.774;2024-01-06T10:01:02;1.88;;;1.10;;
74158;SDS011;62511;47.970;11.774;2024-01-06T10:03:28;1.23;;;0.75;;
74158;SDS011;62511;47.970;11.774;2024-01-06T10:05:54;1.10;;;0.90;;
74158;SDS011;62511;47.970;11.774;2024-01-06T10:08:25;1.58;;;1.08;;
74158;SDS011;62511;47.970;11.774;2024-01-06T10:10:51;1.05;;;0.80;;
74158;SDS011;62511;47.970;11.774;2024-01-06T10:13:18;1.92;;;1.42;;
74158;SDS011;62511;47.970;11.774;2024-01-06T10:15:44;1.83;;;1.38;;
74158;SDS011;62511;47.970;11.774;2024-01-06T10:18:11;1.67;;;1.30;;
74158;SDS011;62511;47.970;11.774;2024-01-06T10:20:37;1.50;;;1.25;;
74158;SDS011;62511;47.970;11.774;2024-01-06T10:23:04;0.98;;;0.60;;
74158;SDS011;62511;47.970;11.774;2024-01-06T10:25:31;0.57;;;0.52;;
74158;SDS011;62511;47.970;11.774;2024-01-06T10:28:00;0.60;;;0.60;;
74158;SDS011;62511;47.970;11.774;2024-01-06T10:30:28;0.93;;;0.80;;
74158;SDS011;62511;47.970;11.774;2024-01-06T10:32:54;0.40;;;0.40;;
74158;SDS011;62511;47.970;11.774;2024-01-06T10:35:21;0.95;;;0.77;;
74158;SDS011;62511;47.970;11.774;2024-01-06T10:37:47;0.45;;;0.45;;
74158;SDS011;62511;47.970;11.774;2024-01-06T10:40:15;0.80;;;0.70;;
74158;SDS011;62511;47.970;11.774;2024-01-06T10:42:42;0.88;;;0.80;;
74158;SDS011;62511;47.970;11.774;2024-01-06T10:45:09;1.27;;;0.50;;
74158;SDS011;62511;47.970;11.774;2024-01-06T10:47:36;0.82;;;0.40;;
74158;SDS011;62511;47.970;11.774;2024-01-06T10:50:03;1.08;;;0.50;;
74158;SDS011;62511;47.970;11.774;2024-01-06T10:52:30;0.77;;;0.50;;
74158;SDS011;62511;47.970;11.774;2024-01-06T10:54:57;0.75;;;0.47;;
74158;SDS011;62511;47.970;11.774;2024-01-06T10:57:23;0.30;;;0.30;;
74158;SDS011;62511;47.970;11.774;2024-01-06T10:59:50;1.50;;;0.75;;
74158;SDS011;62511;47.970;11.774;2024-01-06T11:02:17;2.38;;;1.70;;
74158;SDS011;62511;47.970;11.774;2024-01-06T11:04:47;3.13;;;1.20;;
74158;SDS011;62511;47.970;11.774;2024-01-06T11:07:16;3.47;;;1.60;;
74158;SDS011;62511;47.970;11.774;2024-01-06T11:12:28;3.38;;;1.80;;
74158;SDS011;62511;47.970;11.774;2024-01-06T11:14:54;9.90;;;4.05;;
74158;SDS011;62511;47.970;11.774;2024-01-06T11:20:05;4.45;;;2.53;;
74158;SDS011;62511;47.970;11.774;2024-01-06T11:22:31;11.82;;;4.97;;
74158;SDS011;62511;47.970;11.774;2024-01-06T11:25:06;5.70;;;2.55;;
74158;SDS011;62511;47.970;11.774;2024-01-06T11:27:33;5.60;;;3.42;;
74158;SDS011;62511;47.970;11.774;2024-01-06T11:30:01;3.25;;;1.70;;
74158;SDS011;62511;47.970;11.774;2024-01-06T11:35:11;2.72;;;0.70;;
74158;SDS011;62511;47.970;11.774;2024-01-06T11:42:42;1.45;;;0.82;;
74158;SDS011;62511;47.970;11.774;2024-01-06T11:45:09;1.60;;;0.73;;
74158;SDS011;62511;47.970;11.774;2024-01-06T11:47:35;4.07;;;1.40;;
74158;SDS011;62511;47.970;11.774;2024-01-06T11:50:02;3.95;;;1.00;;
74158;SDS011;62511;47.970;11.774;2024-01-06T11:52:32;0.82;;;0.40;;
74158;SDS011;62511;47.970;11.774;2024-01-06T11:54:59;3.97;;;1.45;;
74158;SDS011;62511;47.970;11.774;2024-01-06T11:57:26;1.50;;;0.98;;
74158;SDS011;62511;47.970;11.774;2024-01-06T11:59:53;1.95;;;1.08;;
74158;SDS011;62511;47.970;11.774;2024-01-06T12:02:19;2.05;;;0.90;;
74158;SDS011;62511;47.970;11.774;2024-01-06T12:04:51;1.98;;;1.13;;
74158;SDS011;62511;47.970;11.774;2024-01-06T12:07:18;0.93;;;0.77;;
74158;SDS011;62511;47.970;11.774;2024-01-06T12:09:45;1.50;;;0.80;;
74158;SDS011;62511;47.970;11.774;2024-01-06T12:12:15;1.55;;;1.02;;
74158;SDS011;62511;47.970;11.774;2024-01-06T12:14:41;1.02;;;0.82;;
74158;SDS011;62511;47.970;11.774;2024-01-06T12:17:07;2.65;;;1.25;;
74158;SDS011;62511;47.970;11.774;2024-01-06T12:19:33;1.50;;;0.82;;
74158;SDS011;62511;47.970;11.774;2024-01-06T12:22:00;2.08;;;1.20;;
74158;SDS011;62511;47.970;11.774;2024-01-06T12:26:57;1.33;;;1.13;;
74158;SDS011;62511;47.970;11.774;2024-01-06T12:29:26;5.60;;;1.17;;
74158;SDS011;62511;47.970;11.774;2024-01-06T12:31:56;0.70;;;0.50;;
74158;SDS011;62511;47.970;11.774;2024-01-06T12:34:24;0.90;;;0.85;;
74158;SDS011;62511;47.970;11.774;2024-01-06T12:36:54;2.67;;;0.80;;
74158;SDS011;62511;47.970;11.774;2024-01-06T12:39:21;1.58;;;0.82;;
74158;SDS011;62511;47.970;11.774;2024-01-06T12:41:50;0.65;;;0.65;;
74158;SDS011;62511;47.970;11.774;2024-01-06T12:44:17;1.02;;;0.68;;
74158;SDS011;62511;47.970;11.774;2024-01-06T12:46:43;0.88;;;0.75;;
74158;SDS011;62511;47.970;11.774;2024-01-06T12:49:09;1.83;;;1.40;;
74158;SDS011;62511;47.970;11.774;2024-01-06T12:51:36;3.05;;;1.95;;
74158;SDS011;62511;47.970;11.774;2024-01-06T12:54:02;2.55;;;1.10;;
74158;SDS011;62511;47.970;11.774;2024-01-06T12:56:28;2.17;;;1.23;;
74158;SDS011;62511;47.970;11.774;2024-01-06T12:58:54;2.33;;;1.27;;
74158;SDS011;62511;47.970;11.774;2024-01-06T13:01:21;4.22;;;1.67;;
74158;SDS011;62511;47.970;11.774;2024-01-06T13:03:48;3.60;;;2.83;;
74158;SDS011;62511;47.970;11.774;2024-01-06T13:06:14;2.22;;;1.52;;
74158;SDS011;62511;47.970;11.774;2024-01-06T13:08:41;1.98;;;1.33;;
74158;SDS011;62511;47.970;11.774;2024-01-06T13:11:08;2.15;;;1.60;;
74158;SDS011;62511;47.970;11.774;2024-01-06T13:13:34;2.60;;;1.42;;
74158;SDS011;62511;47.970;11.774;2024-01-06T13:16:00;1.45;;;0.88;;
74158;SDS011;62511;47.970;11.774;2024-01-06T13:18:30;2.50;;;1.42;;
74158;SDS011;62511;47.970;11.774;2024-01-06T13:20:56;4.00;;;1.42;;
74158;SDS011;62511;47.970;11.774;2024-01-06T13:23:22;1.20;;;0.75;;
74158;SDS011;62511;47.970;11.774;2024-01-06T13:25:49;1.23;;;0.80;;
74158;SDS011;62511;47.970;11.774;2024-01-06T13:28:15;2.05;;;0.90;;
74158;SDS011;62511;47.970;11.774;2024-01-06T13:30:42;2.03;;;1.13;;
74158;SDS011;62511;47.970;11.774;2024-01-06T13:33:08;3.45;;;1.30;;
74158;SDS011;62511;47.970;11.774;2024-01-06T13:35:35;0.90;;;0.88;;
74158;SDS011;62511;47.970;11.774;2024-01-06T13:38:02;2.15;;;1.17;;
74158;SDS011;62511;47.970;11.774;2024-01-06T13:40:31;1.92;;;1.23;;
74158;SDS011;62511;47.970;11.774;2024-01-06T13:42:57;5.82;;;3.50;;
74158;SDS011;62511;47.970;11.774;2024-01-06T13:45:24;6.22;;;3.95;;
74158;SDS011;62511;47.970;11.774;2024-01-06T13:47:50;3.03;;;1.90;;
74158;SDS011;62511;47.970;11.774;2024-01-06T13:50:17;2.22;;;0.93;;
74158;SDS011;62511;47.970;11.774;2024-01-06T13:52:44;5.18;;;2.30;;
74158;SDS011;62511;47.970;11.774;2024-01-06T13:55:13;2.38;;;1.45;;
74158;SDS011;62511;47.970;11.774;2024-01-06T13:57:39;2.58;;;1.50;;
74158;SDS011;62511;47.970;11.774;2024-01-06T14:00:09;2.88;;;1.13;;
74158;SDS011;62511;47.970;11.774;2024-01-06T14:02:36;2.47;;;1.55;;
74158;SDS011;62511;47.970;11.774;2024-01-06T14:05:04;11.35;;;7.28;;
74158;SDS011;62511;47.970;11.774;2024-01-06T14:07:48;8.98;;;4.38;;
74158;SDS011;62511;47.970;11.774;2024-01-06T14:10:25;6.53;;;3.72;;
74158;SDS011;62511;47.970;11.774;2024-01-06T14:12:54;4.15;;;2.17;;
74158;SDS011;62511;47.970;11.774;2024-01-06T14:15:26;5.57;;;3.05;;
74158;SDS011;62511;47.970;11.774;2024-01-06T14:17:57;3.03;;;2.30;;
74158;SDS011;62511;47.970;11.774;2024-01-06T14:20:24;2.85;;;2.00;;
74158;SDS011;62511;47.970;11.774;2024-01-06T14:22:50;4.78;;;2.03;;
74158;SDS011;62511;47.970;11.774;2024-01-06T14:25:24;3.83;;;1.60;;
74158;SDS011;62511;47.970;11.774;2024-01-06T14:27:50;2.63;;;1.77;;
74158;SDS011;62511;47.970;11.774;2024-01-06T14:32:54;4.20;;;2.50;;
74158;SDS011;62511;47.970;11.774;2024-01-06T14:36:04;5.70;;;2.78;;
74158;SDS011;62511;47.970;11.774;2024-01-06T14:38:42;3.55;;;2.92;;
74158;SDS011;62511;47.970;11.774;2024-01-06T14:41:10;3.67;;;2.20;;
74158;SDS011;62511;47.970;11.774;2024-01-06T14:43:39;3.92;;;2.88;;
74158;SDS011;62511;47.970;11.774;2024-01-06T14:46:20;7.32;;;3.65;;
74158;SDS011;62511;47.970;11.774;2024-01-06T14:52:09;5.60;;;3.45;;
74158;SDS011;62511;47.970;11.774;2024-01-06T14:54:36;6.80;;;2.22;;
74158;SDS011;62511;47.970;11.774;2024-01-06T14:57:10;5.18;;;2.13;;
74158;SDS011;62511;47.970;11.774;2024-01-06T15:00:21;4.72;;;3.28;;
74158;SDS011;62511;47.970;11.774;2024-01-06T15:02:50;5.35;;;2.58;;